sensor_id;sensor_type;location;lat;lon;timestamp;P1;durP1;ratioP1;P2;durP2;ratioP2
31754;SDS011;18325;52.018;4.726;2023-11-22T00:02:06;10.27;;;5.63;;
31754;SDS011;18325;52.018;4.726;2023-11-22T00:04:33;7.00;;;4.43;;
31754;SDS011;18325;52.018;4.726;2023-11-22T00:06:59;7.90;;;4.33;;
31754;SDS011;18325;52.018;4.726;2023-11-22T00:09:27;7.53;;;4.17;;
31754;SDS011;18325;52.018;4.726;2023-11-22T00:11:53;8.27;;;4.77;;
31754;SDS011;18325;52.018;4.726;2023-11-22T00:14:20;9.60;;;5.13;;
31754;SDS011;18325;52.018;4.726;2023-11-22T00:16:46;9.13;;;4.83;;
31754;SDS011;18325;52.018;4.726;2023-11-22T00:19:13;13.20;;;5.30;;
31754;SDS011;18325;52.018;4.726;2023-11-22T00:21:43;8.93;;;5.27;;
31754;SDS011;18325;52.018;4.726;2023-11-22T00:24:09;10.07;;;5.07;;
31754;SDS011;18325;52.018;4.726;2023-11-22T00:26:37;11.40;;;4.77;;
31754;SDS011;18325;52.018;4.726;2023-11-22T00:29:04;8.40;;;4.67;;
31754;SDS011;18325;52.018;4.726;2023-11-22T00:31:31;7.37;;;4.90;;
31754;SDS011;18325;52.018;4.726;2023-11-22T00:33:58;6.17;;;4.37;;
31754;SDS011;18325;52.018;4.726;2023-11-22T00:36:24;13.17;;;5.33;;
31754;SDS011;18325;52.018;4.726;2023-11-22T00:38:51;11.27;;;5.63;;
31754;SDS011;18325;52.018;4.726;2023-11-22T00:41:17;7.63;;;4.37;;
31754;SDS011;18325;52.018;4.726;2023-11-22T00:43:45;10.43;;;4.47;;
31754;SDS011;18325;52.018;4.726;2023-11-22T00:46:12;9.23;;;4.97;;
31754;SDS011;18325;52.018;4.726;2023-11-22T00:48:38;9.13;;;4.93;;
31754;SDS011;18325;52.018;4.726;2023-11-22T00:51:05;6.83;;;4.50;;
31754;SDS011;18325;52.018;4.726;2023-11-22T00:53:34;9.23;;;5.37;;
31754;SDS011;18325;52.018;4.726;2023-11-22T00:56:01;7.43;;;4.70;;
31754;SDS011;18325;52.018;4.726;2023-11-22T00:58:27;11.07;;;6.07;;
31754;SDS011;18325;52.018;4.726;2023-11-22T01:00:55;10.47;;;4.93;;
31754;SDS011;18325;52.018;4.726;2023-11-22T01:03:22;12.50;;;5.47;;
31754;SDS011;18325;52.018;4.726;2023-11-22T01:05:48;7.50;;;4.47;;
31754;SDS011;18325;52.018;4.726;2023-11-22T01:08:15;9.00;;;4.77;;
31754;SDS011;18325;52.018;4.726;2023-11-22T01:10:42;10.10;;;4.73;;
31754;SDS011;18325;52.018;4.726;2023-11-22T01:13:08;6.53;;;4.50;;
31754;SDS011;18325;52.018;4.726;2023-11-22T01:15:35;7.60;;;4.80;;
31754;SDS011;18325;52.018;4.726;2023-11-22T01:18:03;9.53;;;5.27;;
31754;SDS011;18325;52.018;4.726;2023-11-22T01:20:29;7.07;;;4.90;;
31754;SDS011;18325;52.018;4.726;2023-11-22T01:22:56;9.13;;;5.47;;
31754;SDS011;18325;52.018;4.726;2023-11-22T01:25:22;9.23;;;4.70;;
31754;SDS011;18325;52.018;4.726;2023-11-22T01:27:49;8.27;;;4.03;;
31754;SDS011;18325;52.018;4.726;2023-11-22T01:30:15;8.03;;;4.40;;
31754;SDS011;18325;52.018;4.726;2023-11-22T01:32:43;8.00;;;4.90;;
31754;SDS011;18325;52.018;4.726;2023-11-22T01:35:11;11.17;;;5.27;;
31754;SDS011;18325;52.018;4.726;2023-11-22T01:37:37;7.33;;;4.83;;
31754;SDS011;18325;52.018;4.726;2023-11-22T01:40:04;10.13;;;5.27;;
31754;SDS011;18325;52.018;4.726;2023-11-22T01:42:33;8.13;;;4.60;;
31754;SDS011;18325;52.018;4.726;2023-11-22T01:45:02;7.07;;;4.13;;
31754;SDS011;18325;52.018;4.726;2023-11-22T01:47:30;8.40;;;4.60;;
31754;SDS011;18325;52.018;4.726;2023-11-22T01:49:56;10.03;;;4.57;;
31754;SDS011;18325;52.018;4.726;2023-11-22T01:52:24;8.47;;;4.67;;
31754;SDS011;18325;52.018;4.726;2023-11-22T01:54:51;10.67;;;5.20;;
31754;SDS011;18325;52.018;4.726;2023-11-22T01:57:18;10.23;;;4.93;;
31754;SDS011;18325;52.018;4.726;2023-11-22T01:59:45;8.97;;;5.03;;
31754;SDS011;18325;52.018;4.726;2023-11-22T02:02:12;7.70;;;4.63;;
31754;SDS011;18325;52.018;4.726;2023-11-22T02:04:39;7.37;;;4.63;;
31754;SDS011;18325;52.018;4.726;2023-11-22T02:07:05;10.00;;;5.37;;
31754;SDS011;18325;52.018;4.726;2023-11-22T02:09:33;8.83;;;4.97;;
31754;SDS011;18325;52.018;4.726;2023-11-22T02:11:59;9.00;;;5.27;;
31754;SDS011;18325;52.018;4.726;2023-11-22T02:14:26;8.83;;;5.03;;
31754;SDS011;18325;52.018;4.726;2023-11-22T02:16:52;6.93;;;4.47;;
31754;SDS011;18325;52.018;4.726;2023-11-22T02:19:19;7.40;;;4.43;;
31754;SDS011;18325;52.018;4.726;2023-11-22T02:21:46;8.13;;;4.33;;
31754;SDS011;18325;52.018;4.726;2023-11-22T02:24:13;7.90;;;4.60;;
31754;SDS011;18325;52.018;4.726;2023-11-22T02:26:43;10.83;;;5.83;;
31754;SDS011;18325;52.018;4.726;2023-11-22T02:29:10;6.13;;;3.83;;
31754;SDS011;18325;52.018;4.726;2023-11-22T02:31:38;7.50;;;4.57;;
31754;SDS011;18325;52.018;4.726;2023-11-22T02:34:05;11.97;;;4.53;;
31754;SDS011;18325;52.018;4.726;2023-11-22T02:36:32;10.70;;;4.47;;
31754;SDS011;18325;52.018;4.726;2023-11-22T02:38:58;6.83;;;4.27;;
31754;SDS011;18325;52.018;4.726;2023-11-22T02:41:27;7.03;;;4.80;;
31754;SDS011;18325;52.018;4.726;2023-11-22T02:43:55;9.80;;;5.10;;
31754;SDS011;18325;52.018;4.726;2023-11-22T02:46:21;6.90;;;4.27;;
31754;SDS011;18325;52.018;4.726;2023-11-22T02:48:48;8.93;;;5.17;;
31754;SDS011;18325;52.018;4.726;2023-11-22T02:51:15;9.23;;;5.27;;
31754;SDS011;18325;52.018;4.726;2023-11-22T02:53:42;9.47;;;5.10;;
31754;SDS011;18325;52.018;4.726;2023-11-22T02:56:10;9.20;;;4.73;;
31754;SDS011;18325;52.018;4.726;2023-11-22T02:58:38;11.70;;;4.63;;
31754;SDS011;18325;52.018;4.726;2023-11-22T03:01:05;10.60;;;4.67;;
31754;SDS011;18325;52.018;4.726;2023-11-22T03:03:32;7.93;;;4.40;;
31754;SDS011;18325;52.018;4.726;2023-11-22T03:05:59;9.37;;;4.83;;
31754;SDS011;18325;52.018;4.726;2023-11-22T03:08:25;7.53;;;4.87;;
31754;SDS011;18325;52.018;4.726;2023-11-22T03:10:52;7.53;;;4.80;;
31754;SDS011;18325;52.018;4.726;2023-11-22T03:13:18;10.20;;;5.83;;
31754;SDS011;18325;52.018;4.726;2023-11-22T03:15:46;9.33;;;5.63;;
31754;SDS011;18325;52.018;4.726;2023-11-22T03:18:13;9.87;;;5.20;;
31754;SDS011;18325;52.018;4.726;2023-11-22T03:20:41;11.70;;;5.40;;
31754;SDS011;18325;52.018;4.726;2023-11-22T03:23:08;8.63;;;5.20;;
31754;SDS011;18325;52.018;4.726;2023-11-22T03:25:36;9.97;;;5.03;;
31754;SDS011;18325;52.018;4.726;2023-11-22T03:28:02;11.30;;;4.77;;
31754;SDS011;18325;52.018;4.726;2023-11-22T03:30:29;10.00;;;5.07;;
31754;SDS011;18325;52.018;4.726;2023-11-22T03:32:57;9.33;;;4.80;;
31754;SDS011;18325;52.018;4.726;2023-11-22T03:35:24;9.27;;;4.77;;
31754;SDS011;18325;52.018;4.726;2023-11-22T03:37:51;10.87;;;6.07;;
31754;SDS011;18325;52.018;4.726;2023-11-22T03:40:17;7.10;;;4.57;;
31754;SDS011;18325;52.018;4.726;2023-11-22T03:42:45;8.23;;;4.73;;
31754;SDS011;18325;52.018;4.726;2023-11-22T03:45:11;8.83;;;5.13;;
31754;SDS011;18325;52.018;4.726;2023-11-22T03:47:39;9.23;;;4.63;;
31754;SDS011;18325;52.018;4.726;2023-11-22T03:50:07;7.70;;;4.73;;
31754;SDS011;18325;52.018;4.726;2023-11-22T03:52:35;8.57;;;4.87;;
31754;SDS011;18325;52.018;4.726;2023-11-22T03:55:01;7.20;;;4.73;;
31754;SDS011;18325;52.018;4.726;2023-11-22T03:57:28;7.97;;;5.07;;
31754;SDS011;18325;52.018;4.726;2023-11-22T03:59:55;10.27;;;4.37;;
31754;SDS011;18325;52.018;4.726;2023-11-22T04:02:21;7.60;;;4.70;;
31754;SDS011;18325;52.018;4.726;2023-11-22T04:04:48;8.10;;;5.23;;
31754;SDS011;18325;52.018;4.726;2023-11-22T04:07:16;13.77;;;5.30;;
31754;SDS011;18325;52.018;4.726;2023-11-22T04:09:43;8.07;;;4.53;;
31754;SDS011;18325;52.018;4.726;2023-11-22T04:12:09;11.13;;;5.67;;
31754;SDS011;18325;52.018;4.726;2023-11-22T04:14:36;12.77;;;5.53;;
31754;SDS011;18325;52.018;4.726;2023-11-22T04:17:02;12.57;;;5.97;;
31754;SDS011;18325;52.018;4.726;2023-11-22T04:19:29;11.33;;;5.90;;
31754;SDS011;18325;52.018;4.726;2023-11-22T04:21:55;11.33;;;6.40;;
31754;SDS011;18325;52.018;4.726;2023-11-22T04:24:24;8.70;;;5.53;;
31754;SDS011;18325;52.018;4.726;2023-11-22T04:26:50;13.33;;;5.63;;
31754;SDS011;18325;52.018;4.726;2023-11-22T04:29:17;11.30;;;5.47;;
31754;SDS011;18325;52.018;4.726;2023-11-22T04:31:43;12.17;;;6.33;;
31754;SDS011;18325;52.018;4.726;2023-11-22T04:34:10;13.27;;;5.10;;
31754;SDS011;18325;52.018;4.726;2023-11-22T04:36:36;10.70;;;6.07;;
31754;SDS011;18325;52.018;4.726;2023-11-22T04:39:03;12.17;;;5.77;;
31754;SDS011;18325;52.018;4.726;2023-11-22T04:41:33;10.97;;;6.30;;
31754;SDS011;18325;52.018;4.726;2023-11-22T04:44:00;9.40;;;6.00;;
31754;SDS011;18325;52.018;4.726;2023-11-22T04:46:26;12.97;;;6.10;;
31754;SDS011;18325;52.018;4.726;2023-11-22T04:48:53;10.63;;;6.43;;
31754;SDS011;18325;52.018;4.726;2023-11-22T04:51:20;12.37;;;7.13;;
31754;SDS011;18325;52.018;4.726;2023-11-22T04:53:46;12.13;;;6.43;;
31754;SDS011;18325;52.018;4.726;2023-11-22T04:56:13;11.67;;;6.13;;
31754;SDS011;18325;52.018;4.726;2023-11-22T04:58:41;9.37;;;5.30;;
31754;SDS011;18325;52.018;4.726;2023-11-22T05:01:07;13.17;;;7.07;;
31754;SDS011;18325;52.018;4.726;2023-11-22T05:03:35;10.60;;;6.10;;
31754;SDS011;18325;52.018;4.726;2023-11-22T05:06:02;12.00;;;6.47;;
31754;SDS011;18325;52.018;4.726;2023-11-22T05:08:29;11.83;;;6.23;;
31754;SDS011;18325;52.018;4.726;2023-11-22T05:10:56;12.03;;;6.30;;
31754;SDS011;18325;52.018;4.726;2023-11-22T05:13:22;11.40;;;6.40;;
31754;SDS011;18325;52.018;4.726;2023-11-22T05:15:50;10.37;;;6.97;;
31754;SDS011;18325;52.018;4.726;2023-11-22T05:18:16;11.40;;;6.23;;
31754;SDS011;18325;52.018;4.726;2023-11-22T05:20:43;11.47;;;6.23;;
31754;SDS011;18325;52.018;4.726;2023-11-22T05:23:09;12.50;;;6.27;;
31754;SDS011;18325;52.018;4.726;2023-11-22T05:25:38;12.27;;;6.33;;
31754;SDS011;18325;52.018;4.726;2023-11-22T05:28:05;13.37;;;6.57;;
31754;SDS011;18325;52.018;4.726;2023-11-22T05:30:31;13.17;;;7.20;;
31754;SDS011;18325;52.018;4.726;2023-11-22T05:32:59;12.53;;;6.73;;
31754;SDS011;18325;52.018;4.726;2023-11-22T05:35:25;14.60;;;6.97;;
31754;SDS011;18325;52.018;4.726;2023-11-22T05:37:52;11.13;;;5.97;;
31754;SDS011;18325;52.018;4.726;2023-11-22T05:40:18;13.80;;;6.53;;
31754;SDS011;18325;52.018;4.726;2023-11-22T05:42:46;13.73;;;7.97;;
31754;SDS011;18325;52.018;4.726;2023-11-22T05:45:13;11.53;;;6.30;;
31754;SDS011;18325;52.018;4.726;2023-11-22T05:47:39;12.70;;;6.17;;
31754;SDS011;18325;52.018;4.726;2023-11-22T05:50:08;14.27;;;6.43;;
31754;SDS011;18325;52.018;4.726;2023-11-22T05:52:35;13.87;;;6.40;;
31754;SDS011;18325;52.018;4.726;2023-11-22T05:55:02;13.77;;;6.97;;
31754;SDS011;18325;52.018;4.726;2023-11-22T05:57:29;11.50;;;6.83;;
31754;SDS011;18325;52.018;4.726;2023-11-22T05:59:55;12.60;;;6.80;;
31754;SDS011;18325;52.018;4.726;2023-11-22T06:02:22;14.10;;;6.63;;
31754;SDS011;18325;52.018;4.726;2023-11-22T06:04:48;13.80;;;6.37;;
31754;SDS011;18325;52.018;4.726;2023-11-22T06:07:16;15.27;;;6.70;;
31754;SDS011;18325;52.018;4.726;2023-11-22T06:09:43;18.23;;;9.40;;
31754;SDS011;18325;52.018;4.726;2023-11-22T06:12:09;17.37;;;6.97;;
31754;SDS011;18325;52.018;4.726;2023-11-22T06:14:36;13.80;;;7.43;;
31754;SDS011;18325;52.018;4.726;2023-11-22T06:17:02;13.57;;;6.80;;
31754;SDS011;18325;52.018;4.726;2023-11-22T06:19:29;14.33;;;7.07;;
31754;SDS011;18325;52.018;4.726;2023-11-22T06:21:55;16.03;;;8.10;;
31754;SDS011;18325;52.018;4.726;2023-11-22T06:24:23;11.73;;;6.67;;
31754;SDS011;18325;52.018;4.726;2023-11-22T06:26:51;12.60;;;6.63;;
31754;SDS011;18325;52.018;4.726;2023-11-22T06:29:17;11.90;;;5.93;;
31754;SDS011;18325;52.018;4.726;2023-11-22T06:31:45;14.67;;;7.33;;
31754;SDS011;18325;52.018;4.726;2023-11-22T06:34:11;13.47;;;6.97;;
31754;SDS011;18325;52.018;4.726;2023-11-22T06:36:38;18.17;;;8.37;;
31754;SDS011;18325;52.018;4.726;2023-11-22T06:39:05;16.50;;;7.50;;
31754;SDS011;18325;52.018;4.726;2023-11-22T06:41:32;14.40;;;6.97;;
31754;SDS011;18325;52.018;4.726;2023-11-22T06:43:59;15.20;;;7.00;;
31754;SDS011;18325;52.018;4.726;2023-11-22T06:46:25;12.73;;;6.73;;
31754;SDS011;18325;52.018;4.726;2023-11-22T06:48:52;12.83;;;6.57;;
31754;SDS011;18325;52.018;4.726;2023-11-22T06:51:19;14.57;;;7.73;;
31754;SDS011;18325;52.018;4.726;2023-11-22T06:53:47;15.00;;;7.43;;
31754;SDS011;18325;52.018;4.726;2023-11-22T06:56:13;16.23;;;7.67;;
31754;SDS011;18325;52.018;4.726;2023-11-22T06:58:41;21.33;;;9.13;;
31754;SDS011;18325;52.018;4.726;2023-11-22T07:01:08;13.37;;;5.67;;
31754;SDS011;18325;52.018;4.726;2023-11-22T07:03:35;13.07;;;6.90;;
31754;SDS011;18325;52.018;4.726;2023-11-22T07:06:02;14.67;;;6.50;;
31754;SDS011;18325;52.018;4.726;2023-11-22T07:08:29;16.23;;;6.80;;
31754;SDS011;18325;52.018;4.726;2023-11-22T07:10:56;15.63;;;7.27;;
31754;SDS011;18325;52.018;4.726;2023-11-22T07:13:22;16.07;;;6.63;;
31754;SDS011;18325;52.018;4.726;2023-11-22T07:15:50;12.93;;;6.57;;
31754;SDS011;18325;52.018;4.726;2023-11-22T07:18:18;12.40;;;6.33;;
31754;SDS011;18325;52.018;4.726;2023-11-22T07:20:49;14.57;;;7.50;;
31754;SDS011;18325;52.018;4.726;2023-11-22T07:23:15;13.87;;;7.37;;
31754;SDS011;18325;52.018;4.726;2023-11-22T07:25:42;9.83;;;5.63;;
31754;SDS011;18325;52.018;4.726;2023-11-22T07:28:08;11.37;;;7.13;;
31754;SDS011;18325;52.018;4.726;2023-11-22T07:30:35;14.93;;;7.20;;
31754;SDS011;18325;52.018;4.726;2023-11-22T07:33:05;15.43;;;7.37;;
31754;SDS011;18325;52.018;4.726;2023-11-22T07:35:31;14.73;;;6.67;;
31754;SDS011;18325;52.018;4.726;2023-11-22T07:37:58;11.23;;;6.10;;
31754;SDS011;18325;52.018;4.726;2023-11-22T07:40:24;14.13;;;7.70;;
31754;SDS011;18325;52.018;4.726;2023-11-22T07:42:51;12.47;;;6.80;;
31754;SDS011;18325;52.018;4.726;2023-11-22T07:45:19;12.90;;;6.93;;
31754;SDS011;18325;52.018;4.726;2023-11-22T07:47:46;12.30;;;6.13;;
31754;SDS011;18325;52.018;4.726;2023-11-22T07:50:13;13.37;;;6.57;;
31754;SDS011;18325;52.018;4.726;2023-11-22T07:52:40;13.30;;;6.63;;
31754;SDS011;18325;52.018;4.726;2023-11-22T07:55:07;11.93;;;6.37;;
31754;SDS011;18325;52.018;4.726;2023-11-22T07:57:35;13.40;;;6.33;;
31754;SDS011;18325;52.018;4.726;2023-11-22T08:00:01;15.23;;;7.20;;
31754;SDS011;18325;52.018;4.726;2023-11-22T08:02:32;15.27;;;6.40;;
31754;SDS011;18325;52.018;4.726;2023-11-22T08:04:58;14.77;;;7.77;;
31754;SDS011;18325;52.018;4.726;2023-11-22T08:07:28;14.47;;;7.27;;
31754;SDS011;18325;52.018;4.726;2023-11-22T08:09:54;12.13;;;6.40;;
31754;SDS011;18325;52.018;4.726;2023-11-22T08:12:21;11.53;;;6.93;;
31754;SDS011;18325;52.018;4.726;2023-11-22T08:14:48;13.07;;;6.60;;
31754;SDS011;18325;52.018;4.726;2023-11-22T08:17:14;11.93;;;6.53;;
31754;SDS011;18325;52.018;4.726;2023-11-22T08:19:41;15.43;;;7.20;;
31754;SDS011;18325;52.018;4.726;2023-11-22T08:22:07;12.43;;;6.63;;
31754;SDS011;18325;52.018;4.726;2023-11-22T08:24:35;13.70;;;7.03;;
31754;SDS011;18325;52.018;4.726;2023-11-22T08:27:02;10.23;;;6.47;;
31754;SDS011;18325;52.018;4.726;2023-11-22T08:29:29;15.23;;;7.43;;
31754;SDS011;18325;52.018;4.726;2023-11-22T08:31:56;15.30;;;8.10;;
31754;SDS011;18325;52.018;4.726;2023-11-22T08:34:23;14.63;;;6.83;;
31754;SDS011;18325;52.018;4.726;2023-11-22T08:36:49;14.70;;;7.37;;
31754;SDS011;18325;52.018;4.726;2023-11-22T08:39:16;19.33;;;7.90;;
31754;SDS011;18325;52.018;4.726;2023-11-22T08:41:44;13.23;;;7.33;;
31754;SDS011;18325;52.018;4.726;2023-11-22T08:44:10;12.77;;;7.43;;
31754;SDS011;18325;52.018;4.726;2023-11-22T08:46:37;15.67;;;7.53;;
31754;SDS011;18325;52.018;4.726;2023-11-22T08:49:03;13.83;;;7.57;;
31754;SDS011;18325;52.018;4.726;2023-11-22T08:51:31;13.30;;;6.90;;
31754;SDS011;18325;52.018;4.726;2023-11-22T08:53:58;13.03;;;7.40;;
31754;SDS011;18325;52.018;4.726;2023-11-22T08:56:25;18.00;;;9.17;;
31754;SDS011;18325;52.018;4.726;2023-11-22T08:58:53;19.30;;;8.77;;
31754;SDS011;18325;52.018;4.726;2023-11-22T09:01:19;18.73;;;8.23;;
31754;SDS011;18325;52.018;4.726;2023-11-22T09:03:46;14.00;;;6.53;;
31754;SDS011;18325;52.018;4.726;2023-11-22T09:06:15;15.17;;;8.03;;
31754;SDS011;18325;52.018;4.726;2023-11-22T09:08:42;13.63;;;7.37;;
31754;SDS011;18325;52.018;4.726;2023-11-22T09:11:08;15.03;;;8.03;;
31754;SDS011;18325;52.018;4.726;2023-11-22T09:13:35;13.63;;;6.63;;
31754;SDS011;18325;52.018;4.726;2023-11-22T09:16:03;15.10;;;7.70;;
31754;SDS011;18325;52.018;4.726;2023-11-22T09:18:31;15.50;;;7.67;;
31754;SDS011;18325;52.018;4.726;2023-11-22T09:20:57;19.30;;;8.17;;
31754;SDS011;18325;52.018;4.726;2023-11-22T09:23:24;15.77;;;8.00;;
31754;SDS011;18325;52.018;4.726;2023-11-22T09:25:51;16.40;;;7.97;;
31754;SDS011;18325;52.018;4.726;2023-11-22T09:28:18;16.27;;;9.20;;
31754;SDS011;18325;52.018;4.726;2023-11-22T09:30:45;15.07;;;7.40;;
31754;SDS011;18325;52.018;4.726;2023-11-22T09:33:15;15.60;;;8.67;;
31754;SDS011;18325;52.018;4.726;2023-11-22T09:35:42;20.07;;;8.67;;
31754;SDS011;18325;52.018;4.726;2023-11-22T09:38:09;15.57;;;8.07;;
31754;SDS011;18325;52.018;4.726;2023-11-22T09:40:37;15.67;;;7.50;;
31754;SDS011;18325;52.018;4.726;2023-11-22T09:43:08;20.80;;;9.57;;
31754;SDS011;18325;52.018;4.726;2023-11-22T09:45:34;16.50;;;8.43;;
31754;SDS011;18325;52.018;4.726;2023-11-22T09:48:03;16.53;;;8.00;;
31754;SDS011;18325;52.018;4.726;2023-11-22T09:50:43;16.13;;;8.40;;
31754;SDS011;18325;52.018;4.726;2023-11-22T09:53:19;15.53;;;8.27;;
31754;SDS011;18325;52.018;4.726;2023-11-22T09:55:49;17.67;;;7.70;;
31754;SDS011;18325;52.018;4.726;2023-11-22T09:58:15;18.77;;;8.33;;
31754;SDS011;18325;52.018;4.726;2023-11-22T10:00:42;19.90;;;8.37;;
31754;SDS011;18325;52.018;4.726;2023-11-22T10:03:09;16.93;;;8.67;;
31754;SDS011;18325;52.018;4.726;2023-11-22T10:05:38;17.50;;;8.13;;
31754;SDS011;18325;52.018;4.726;2023-11-22T10:08:06;18.87;;;9.27;;
31754;SDS011;18325;52.018;4.726;2023-11-22T10:10:35;14.00;;;8.00;;
31754;SDS011;18325;52.018;4.726;2023-11-22T10:13:02;18.53;;;9.10;;
31754;SDS011;18325;52.018;4.726;2023-11-22T10:15:29;23.40;;;9.27;;
31754;SDS011;18325;52.018;4.726;2023-11-22T10:17:57;15.87;;;9.33;;
31754;SDS011;18325;52.018;4.726;2023-11-22T10:20:26;21.63;;;10.10;;
31754;SDS011;18325;52.018;4.726;2023-11-22T10:23:04;17.30;;;9.10;;
31754;SDS011;18325;52.018;4.726;2023-11-22T10:25:37;21.10;;;8.93;;
31754;SDS011;18325;52.018;4.726;2023-11-22T10:28:09;19.50;;;9.67;;
31754;SDS011;18325;52.018;4.726;2023-11-22T10:30:36;16.67;;;9.00;;
31754;SDS011;18325;52.018;4.726;2023-11-22T10:33:04;22.90;;;10.87;;
31754;SDS011;18325;52.018;4.726;2023-11-22T10:35:30;21.83;;;9.37;;
31754;SDS011;18325;52.018;4.726;2023-11-22T10:37:58;22.07;;;9.50;;
31754;SDS011;18325;52.018;4.726;2023-11-22T10:40:28;18.90;;;9.23;;
31754;SDS011;18325;52.018;4.726;2023-11-22T10:42:55;17.67;;;9.07;;
31754;SDS011;18325;52.018;4.726;2023-11-22T10:45:22;16.33;;;9.33;;
31754;SDS011;18325;52.018;4.726;2023-11-22T10:47:49;17.30;;;9.23;;
31754;SDS011;18325;52.018;4.726;2023-11-22T10:50:16;21.90;;;10.50;;
31754;SDS011;18325;52.018;4.726;2023-11-22T10:52:42;22.90;;;9.40;;
31754;SDS011;18325;52.018;4.726;2023-11-22T10:55:11;19.13;;;9.77;;
31754;SDS011;18325;52.018;4.726;2023-11-22T10:57:43;21.47;;;10.33;;
31754;SDS011;18325;52.018;4.726;2023-11-22T11:00:13;16.70;;;9.10;;
31754;SDS011;18325;52.018;4.726;2023-11-22T11:02:43;21.87;;;9.03;;
31754;SDS011;18325;52.018;4.726;2023-11-22T11:05:15;23.70;;;10.90;;
31754;SDS011;18325;52.018;4.726;2023-11-22T11:07:44;20.07;;;9.50;;
31754;SDS011;18325;52.018;4.726;2023-11-22T11:10:17;16.63;;;8.97;;
31754;SDS011;18325;52.018;4.726;2023-11-22T11:12:47;22.23;;;10.97;;
31754;SDS011;18325;52.018;4.726;2023-11-22T11:15:13;18.17;;;9.27;;
31754;SDS011;18325;52.018;4.726;2023-11-22T11:17:41;18.00;;;8.93;;
31754;SDS011;18325;52.018;4.726;2023-11-22T11:20:09;19.27;;;10.17;;
31754;SDS011;18325;52.018;4.726;2023-11-22T11:22:38;19.23;;;10.00;;
31754;SDS011;18325;52.018;4.726;2023-11-22T11:25:05;19.03;;;9.80;;
31754;SDS011;18325;52.018;4.726;2023-11-22T11:27:33;21.20;;;9.57;;
31754;SDS011;18325;52.018;4.726;2023-11-22T11:30:02;19.93;;;10.47;;
31754;SDS011;18325;52.018;4.726;2023-11-22T11:33:09;22.77;;;9.60;;
31754;SDS011;18325;52.018;4.726;2023-11-22T11:35:37;19.77;;;9.80;;
31754;SDS011;18325;52.018;4.726;2023-11-22T11:38:04;17.37;;;9.03;;
31754;SDS011;18325;52.018;4.726;2023-11-22T11:40:34;18.80;;;9.90;;
31754;SDS011;18325;52.018;4.726;2023-11-22T11:43:01;17.47;;;10.43;;
31754;SDS011;18325;52.018;4.726;2023-11-22T11:45:29;22.97;;;10.73;;
31754;SDS011;18325;52.018;4.726;2023-11-22T11:47:56;19.33;;;10.23;;
31754;SDS011;18325;52.018;4.726;2023-11-22T11:50:22;18.23;;;9.83;;
31754;SDS011;18325;52.018;4.726;2023-11-22T11:52:49;21.80;;;9.20;;
31754;SDS011;18325;52.018;4.726;2023-11-22T11:55:16;18.13;;;9.57;;
31754;SDS011;18325;52.018;4.726;2023-11-22T11:57:42;19.40;;;9.73;;
31754;SDS011;18325;52.018;4.726;2023-11-22T12:00:13;22.90;;;10.60;;
31754;SDS011;18325;52.018;4.726;2023-11-22T12:02:41;17.97;;;8.77;;
31754;SDS011;18325;52.018;4.726;2023-11-22T12:05:08;18.53;;;9.00;;
31754;SDS011;18325;52.018;4.726;2023-11-22T12:07:35;18.60;;;8.63;;
31754;SDS011;18325;52.018;4.726;2023-11-22T12:10:01;18.37;;;8.50;;
31754;SDS011;18325;52.018;4.726;2023-11-22T12:12:28;15.03;;;7.23;;
31754;SDS011;18325;52.018;4.726;2023-11-22T12:14:55;12.60;;;7.37;;
31754;SDS011;18325;52.018;4.726;2023-11-22T12:17:22;15.73;;;7.20;;
31754;SDS011;18325;52.018;4.726;2023-11-22T12:19:52;15.67;;;7.53;;
31754;SDS011;18325;52.018;4.726;2023-11-22T12:22:18;13.70;;;6.93;;
31754;SDS011;18325;52.018;4.726;2023-11-22T12:24:45;13.87;;;7.10;;
31754;SDS011;18325;52.018;4.726;2023-11-22T12:27:11;14.90;;;7.10;;
31754;SDS011;18325;52.018;4.726;2023-11-22T12:29:39;13.97;;;6.97;;
31754;SDS011;18325;52.018;4.726;2023-11-22T12:32:06;16.87;;;7.97;;
31754;SDS011;18325;52.018;4.726;2023-11-22T12:34:33;17.20;;;7.87;;
31754;SDS011;18325;52.018;4.726;2023-11-22T12:37:14;15.37;;;7.17;;
31754;SDS011;18325;52.018;4.726;2023-11-22T12:39:41;12.87;;;7.27;;
31754;SDS011;18325;52.018;4.726;2023-11-22T12:42:07;16.07;;;7.37;;
31754;SDS011;18325;52.018;4.726;2023-11-22T12:44:46;13.27;;;6.80;;
31754;SDS011;18325;52.018;4.726;2023-11-22T12:47:13;13.77;;;7.13;;
31754;SDS011;18325;52.018;4.726;2023-11-22T12:49:43;14.23;;;7.30;;
31754;SDS011;18325;52.018;4.726;2023-11-22T12:52:12;12.43;;;6.63;;
31754;SDS011;18325;52.018;4.726;2023-11-22T12:54:39;16.20;;;6.97;;
31754;SDS011;18325;52.018;4.726;2023-11-22T12:57:09;12.57;;;6.60;;
31754;SDS011;18325;52.018;4.726;2023-11-22T12:59:37;12.33;;;6.63;;
31754;SDS011;18325;52.018;4.726;2023-11-22T13:02:04;12.53;;;7.37;;
31754;SDS011;18325;52.018;4.726;2023-11-22T13:04:32;12.87;;;6.80;;
31754;SDS011;18325;52.018;4.726;2023-11-22T13:06:58;13.00;;;7.57;;
31754;SDS011;18325;52.018;4.726;2023-11-22T13:09:26;11.43;;;6.30;;
31754;SDS011;18325;52.018;4.726;2023-11-22T13:11:54;11.33;;;6.73;;
31754;SDS011;18325;52.018;4.726;2023-11-22T13:14:21;15.07;;;7.30;;
31754;SDS011;18325;52.018;4.726;2023-11-22T13:16:48;11.50;;;7.00;;
31754;SDS011;18325;52.018;4.726;2023-11-22T13:19:14;15.60;;;7.37;;
31754;SDS011;18325;52.018;4.726;2023-11-22T13:21:41;14.53;;;6.93;;
31754;SDS011;18325;52.018;4.726;2023-11-22T13:24:09;15.53;;;7.00;;
31754;SDS011;18325;52.018;4.726;2023-11-22T13:26:40;13.33;;;7.43;;
31754;SDS011;18325;52.018;4.726;2023-11-22T13:29:07;16.03;;;7.50;;
31754;SDS011;18325;52.018;4.726;2023-11-22T13:31:34;13.33;;;7.50;;
31754;SDS011;18325;52.018;4.726;2023-11-22T13:34:00;13.50;;;7.10;;
31754;SDS011;18325;52.018;4.726;2023-11-22T13:36:27;12.60;;;7.43;;
31754;SDS011;18325;52.018;4.726;2023-11-22T13:38:54;13.87;;;6.63;;
31754;SDS011;18325;52.018;4.726;2023-11-22T13:41:21;14.80;;;7.63;;
31754;SDS011;18325;52.018;4.726;2023-11-22T13:43:50;16.80;;;8.73;;
31754;SDS011;18325;52.018;4.726;2023-11-22T13:46:17;13.17;;;8.00;;
31754;SDS011;18325;52.018;4.726;2023-11-22T13:48:43;16.93;;;7.80;;
31754;SDS011;18325;52.018;4.726;2023-11-22T13:51:10;19.37;;;9.63;;
31754;SDS011;18325;52.018;4.726;2023-11-22T13:53:36;16.27;;;8.30;;
31754;SDS011;18325;52.018;4.726;2023-11-22T13:56:08;15.23;;;7.57;;
31754;SDS011;18325;52.018;4.726;2023-11-22T13:58:35;16.93;;;8.47;;
31754;SDS011;18325;52.018;4.726;2023-11-22T14:01:03;18.10;;;9.13;;
31754;SDS011;18325;52.018;4.726;2023-11-22T14:03:31;20.20;;;8.70;;
31754;SDS011;18325;52.018;4.726;2023-11-22T14:05:57;18.80;;;9.23;;
31754;SDS011;18325;52.018;4.726;2023-11-22T14:08:25;19.60;;;8.97;;
31754;SDS011;18325;52.018;4.726;2023-11-22T14:10:51;18.63;;;10.40;;
31754;SDS011;18325;52.018;4.726;2023-11-22T14:13:18;18.63;;;10.20;;
31754;SDS011;18325;52.018;4.726;2023-11-22T14:15:46;23.00;;;9.93;;
31754;SDS011;18325;52.018;4.726;2023-11-22T14:18:13;22.60;;;11.73;;
31754;SDS011;18325;52.018;4.726;2023-11-22T14:20:42;21.53;;;9.57;;
31754;SDS011;18325;52.018;4.726;2023-11-22T14:23:08;21.37;;;10.13;;
31754;SDS011;18325;52.018;4.726;2023-11-22T14:25:36;20.40;;;9.43;;
31754;SDS011;18325;52.018;4.726;2023-11-22T14:28:03;21.07;;;10.27;;
31754;SDS011;18325;52.018;4.726;2023-11-22T14:30:29;23.70;;;10.43;;
31754;SDS011;18325;52.018;4.726;2023-11-22T14:33:00;22.90;;;10.50;;
31754;SDS011;18325;52.018;4.726;2023-11-22T14:35:32;19.43;;;10.57;;
31754;SDS011;18325;52.018;4.726;2023-11-22T14:38:00;26.07;;;11.40;;